Time;durP1;ratioP1;P1;durP2;ratioP2;P2;SDS_P1;SDS_P2;PMS_P1;PMS_P2;Temp;Humidity;BMP_temperature;BMP_pressure;BME280_temperature;BME280_humidity;BME280_pressure;Samples;Min_cycle;Max_cycle;Signal;HPM_P1;HPM_P2
2023/12/07 00:00:25;;;;;;;8.23;7.43;;;23.60;67.50;;;;;;6226994;28;94728;-65
2023/12/07 00:03:29;;;;;;;8.93;7.53;;;23.60;67.60;;;;;;6222893;28;94122;-64
2023/12/07 00:06:31;;;;;;;11.48;8.27;;;23.60;67.60;;;;;;6226901;28;93480;-64
2023/12/07 00:09:33;;;;;;;9.85;8.25;;;23.60;67.60;;;;;;6226772;28;94089;-64
2023/12/07 00:12:35;;;;;;;9.55;7.80;;;23.60;67.70;;;;;;6225178;28;94059;-64
2023/12/07 00:15:36;;;;;;;9.98;7.90;;;23.50;67.60;;;;;;6215199;28;95018;-64
2023/12/07 00:18:40;;;;;;;9.65;7.68;;;23.50;67.70;;;;;;6211635;28;94111;-64
2023/12/07 00:21:42;;;;;;;10.43;8.05;;;23.50;67.80;;;;;;6221559;28;94054;-64
2023/12/07 00:24:44;;;;;;;9.73;7.63;;;23.50;67.90;;;;;;6225431;28;93473;-64
2023/12/07 00:27:46;;;;;;;9.13;8.15;;;23.50;67.90;;;;;;6226778;28;94100;-64
2023/12/07 00:30:48;;;;;;;10.38;8.30;;;23.50;67.90;;;;;;6223085;28;94016;-64
2023/12/07 00:33:51;;;;;;;8.77;7.88;;;23.50;67.90;;;;;;6216767;28;93991;-64
2023/12/07 00:36:53;;;;;;;8.27;7.47;;;23.50;67.80;;;;;;6225703;28;93355;-64
2023/12/07 00:39:56;;;;;;;8.57;7.47;;;23.50;67.90;;;;;;6226102;28;94198;-64
2023/12/07 00:42:59;;;;;;;10.25;8.07;;;23.50;67.90;;;;;;6224268;28;94014;-63
2023/12/07 00:46:02;;;;;;;8.35;7.50;;;23.40;67.90;;;;;;6220910;28;95049;-64
2023/12/07 00:49:05;;;;;;;10.18;8.40;;;23.40;67.90;;;;;;6219556;28;94951;-64
2023/12/07 00:52:07;;;;;;;10.07;8.35;;;23.40;68.00;;;;;;6221951;28;94232;-64
2023/12/07 00:55:09;;;;;;;9.73;7.72;;;23.40;67.90;;;;;;6216345;28;94140;-64
2023/12/07 00:58:11;;;;;;;8.20;7.40;;;23.40;67.90;;;;;;6227801;28;94168;-64
2023/12/07 01:01:13;;;;;;;8.30;7.40;;;23.40;67.90;;;;;;6216075;28;94109;-64
2023/12/07 01:04:17;;;;;;;7.82;7.00;;;23.40;67.90;;;;;;6208483;28;94146;-64
2023/12/07 01:07:19;;;;;;;9.15;7.57;;;23.30;67.90;;;;;;6215543;28;93381;-65
2023/12/07 01:10:24;;;;;;;10.13;7.78;;;23.30;68.00;;;;;;6225638;28;94178;-64
2023/12/07 01:13:26;;;;;;;8.32;7.20;;;23.30;67.90;;;;;;6220308;28;95319;-64
2023/12/07 01:16:28;;;;;;;7.97;7.18;;;23.30;67.90;;;;;;6213601;28;95204;-63
2023/12/07 01:19:31;;;;;;;8.75;7.43;;;23.30;67.90;;;;;;6213829;28;94271;-64
2023/12/07 01:22:33;;;;;;;9.75;7.40;;;23.30;68.00;;;;;;6212894;28;94577;-64
2023/12/07 01:25:36;;;;;;;8.02;7.22;;;23.30;68.00;;;;;;6221232;28;94100;-64
2023/12/07 01:28:38;;;;;;;8.55;7.22;;;23.30;68.10;;;;;;6220209;28;94335;-64
2023/12/07 01:31:41;;;;;;;7.10;6.40;;;23.30;67.90;;;;;;6219867;28;94547;-63
2023/12/07 01:34:44;;;;;;;9.15;6.90;;;23.20;67.90;;;;;;6219940;28;94183;-63
2023/12/07 01:37:47;;;;;;;7.60;6.63;;;23.20;67.90;;;;;;6221365;28;93503;-63
2023/12/07 01:40:49;;;;;;;8.05;7.13;;;23.20;68.00;;;;;;6229975;28;94088;-63
2023/12/07 01:43:51;;;;;;;7.78;6.70;;;23.20;67.90;;;;;;6212915;28;93055;-64
2023/12/07 01:46:53;;;;;;;7.35;6.47;;;23.20;68.00;;;;;;6218679;28;95420;-63
2023/12/07 01:49:57;;;;;;;7.88;6.68;;;23.10;68.00;;;;;;6224414;28;94220;-63
2023/12/07 01:53:04;;;;;;;9.55;7.10;;;23.20;68.10;;;;;;6228547;28;94180;-63
2023/12/07 01:56:07;;;;;;;8.05;6.85;;;23.10;67.90;;;;;;6230650;28;94091;-63
2023/12/07 01:59:10;;;;;;;7.10;6.40;;;23.10;67.90;;;;;;6209903;28;94100;-63
2023/12/07 02:02:12;;;;;;;7.70;6.57;;;23.10;67.80;;;;;;6224840;28;94751;-63
2023/12/07 02:05:16;;;;;;;6.95;6.15;;;23.10;67.70;;;;;;6221707;28;94167;-63
2023/12/07 02:08:18;;;;;;;9.07;6.68;;;23.10;67.60;;;;;;6215223;28;93382;-63
2023/12/07 02:11:19;;;;;;;7.13;6.40;;;23.10;67.40;;;;;;6212580;28;94134;-63
2023/12/07 02:14:22;;;;;;;9.30;6.70;;;23.10;67.30;;;;;;6230279;28;94089;-63
2023/12/07 02:17:34;;;;;;;7.18;6.40;;;23.10;67.20;;;;;;6226831;28;95060;-63
2023/12/07 02:20:43;;;;;;;6.80;6.10;;;23.10;67.10;;;;;;6210928;28;94123;-63
2023/12/07 02:23:47;;;;;;;6.97;6.28;;;23.10;67.10;;;;;;6206517;28;94268;-63
2023/12/07 02:26:51;;;;;;;7.05;5.95;;;23.10;67.00;;;;;;6219159;28;94119;-63
2023/12/07 02:29:53;;;;;;;6.70;6.00;;;23.10;66.90;;;;;;6227469;28;94372;-63
2023/12/07 02:32:55;;;;;;;6.30;5.70;;;23.10;66.80;;;;;;6218688;28;94098;-63
2023/12/07 02:35:57;;;;;;;8.00;6.20;;;23.10;66.90;;;;;;6221108;28;94094;-64
2023/12/07 02:39:01;;;;;;;7.40;6.38;;;23.10;66.80;;;;;;6216902;28;95724;-63
2023/12/07 02:42:07;;;;;;;6.53;5.75;;;23.10;66.70;;;;;;6222764;28;94145;-63
2023/12/07 02:45:10;;;;;;;6.75;5.95;;;23.10;67.40;;;;;;6221870;28;94077;-63
2023/12/07 02:48:12;;;;;;;6.68;6.00;;;23.10;68.20;;;;;;6214036;28;95176;-64
2023/12/07 02:51:14;;;;;;;6.40;5.68;;;23.10;68.30;;;;;;6209039;28;94143;-64
2023/12/07 02:54:16;;;;;;;9.05;6.63;;;23.10;68.30;;;;;;6217703;28;94545;-64
2023/12/07 02:57:19;;;;;;;7.70;6.25;;;23.10;68.40;;;;;;6205021;28;94163;-64
2023/12/07 03:00:22;;;;;;;6.72;6.03;;;23.10;68.30;;;;;;6209049;28;94055;-63
2023/12/07 03:03:24;;;;;;;6.50;5.90;;;23.10;68.00;;;;;;6206949;28;94130;-64
2023/12/07 03:06:26;;;;;;;7.70;6.40;;;23.20;68.00;;;;;;6206196;28;94101;-63
2023/12/07 03:09:28;;;;;;;7.22;6.07;;;23.10;67.50;;;;;;6209311;28;93398;-62
2023/12/07 03:12:31;;;;;;;6.65;5.97;;;23.10;67.20;;;;;;6221553;28;94769;-62
2023/12/07 03:15:33;;;;;;;16.85;6.03;;;23.10;66.70;;;;;;6217772;28;94144;-62
2023/12/07 03:18:35;;;;;;;6.90;6.18;;;23.10;66.60;;;;;;6206879;28;95069;-62
2023/12/07 03:21:40;;;;;;;10.07;6.85;;;23.10;66.90;;;;;;6219705;28;94145;-62
2023/12/07 03:24:47;;;;;;;11.05;7.53;;;23.10;67.10;;;;;;6220105;28;94179;-62
2023/12/07 03:27:50;;;;;;;11.38;6.90;;;23.00;67.50;;;;;;6225908;28;94266;-62
2023/12/07 03:30:52;;;;;;;13.38;7.85;;;23.00;67.90;;;;;;6214473;28;94084;-62
2023/12/07 03:33:54;;;;;;;11.60;7.80;;;23.00;68.50;;;;;;6212150;28;94221;-62
2023/12/07 03:36:56;;;;;;;12.02;7.50;;;23.00;68.80;;;;;;6211048;28;94607;-62
2023/12/07 03:39:58;;;;;;;14.80;8.10;;;23.00;68.90;;;;;;6227243;28;93394;-62
2023/12/07 03:43:04;;;;;;;12.60;7.90;;;23.00;69.10;;;;;;6205130;28;94108;-62
2023/12/07 03:46:06;;;;;;;10.18;6.43;;;23.00;69.00;;;;;;6195348;28;94065;-63
2023/12/07 03:49:08;;;;;;;9.85;6.47;;;23.00;68.80;;;;;;6190421;28;95280;-62
2023/12/07 03:52:10;;;;;;;11.80;6.93;;;23.00;68.60;;;;;;6202133;28;94391;-62
2023/12/07 03:55:12;;;;;;;11.90;6.70;;;23.00;68.50;;;;;;6200619;28;94109;-62
2023/12/07 03:58:15;;;;;;;12.57;7.40;;;23.00;68.40;;;;;;6187704;28;94446;-62
2023/12/07 04:01:17;;;;;;;16.00;8.02;;;22.90;69.50;;;;;;6203617;28;94119;-63
2023/12/07 04:04:19;;;;;;;17.30;9.35;;;23.00;69.00;;;;;;6222040;28;94179;-62
2023/12/07 04:07:22;;;;;;;20.08;10.15;;;22.90;69.40;;;;;;6214259;28;94012;-62
2023/12/07 04:10:25;;;;;;;21.30;9.73;;;22.90;70.30;;;;;;6225760;28;93380;-62
2023/12/07 04:13:28;;;;;;;15.05;7.95;;;22.90;70.50;;;;;;6197319;28;94177;-62
2023/12/07 04:16:30;;;;;;;13.55;8.02;;;23.00;70.60;;;;;;6195516;28;95044;-63
2023/12/07 04:19:32;;;;;;;12.38;7.38;;;22.90;70.40;;;;;;6199840;28;94988;-63
2023/12/07 04:22:34;;;;;;;10.63;6.97;;;22.90;70.30;;;;;;6182988;28;94139;-62
2023/12/07 04:25:36;;;;;;;12.48;7.15;;;22.90;70.10;;;;;;6182092;28;94174;-63
2023/12/07 04:28:40;;;;;;;13.07;7.15;;;22.80;70.00;;;;;;6189366;28;92985;-63
2023/12/07 04:31:42;;;;;;;12.90;6.78;;;22.90;69.90;;;;;;6194324;28;93993;-63
2023/12/07 04:34:44;;;;;;;9.82;6.90;;;22.90;69.90;;;;;;6187509;28;94072;-63
2023/12/07 04:37:46;;;;;;;11.02;7.40;;;22.90;69.70;;;;;;6194946;28;94248;-63
2023/12/07 04:40:48;;;;;;;9.38;6.32;;;22.90;70.50;;;;;;6202312;28;93403;-63
2023/12/07 04:43:51;;;;;;;10.18;6.82;;;22.90;69.60;;;;;;6222963;28;96052;-63
2023/12/07 04:46:53;;;;;;;10.13;6.25;;;22.90;69.50;;;;;;6213694;28;94480;-63
2023/12/07 04:49:55;;;;;;;9.38;6.45;;;22.90;69.40;;;;;;6209903;28;95142;-63
2023/12/07 04:52:57;;;;;;;8.93;6.00;;;22.90;69.40;;;;;;6226636;28;94580;-63
2023/12/07 04:55:59;;;;;;;9.85;6.68;;;22.90;69.40;;;;;;6223908;28;94172;-63
2023/12/07 04:59:04;;;;;;;10.15;6.40;;;22.90;69.40;;;;;;6212038;28;94111;-62
2023/12/07 05:02:06;;;;;;;8.80;6.20;;;22.80;69.30;;;;;;6224424;28;94242;-63
2023/12/07 05:05:09;;;;;;;9.68;6.72;;;22.80;69.30;;;;;;6215464;28;93113;-63
2023/12/07 05:08:11;;;;;;;10.25;6.45;;;22.80;69.30;;;;;;6226397;28;94096;-63
2023/12/07 05:11:17;;;;;;;8.75;6.10;;;22.80;69.30;;;;;;6227323;28;93433;-63
2023/12/07 05:14:21;;;;;;;8.32;6.30;;;22.90;69.30;;;;;;6204948;28;94823;-63
2023/12/07 05:17:23;;;;;;;8.63;6.45;;;22.80;69.20;;;;;;6207552;28;94077;-63
2023/12/07 05:20:26;;;;;;;7.95;6.07;;;22.90;69.30;;;;;;6205120;28;95156;-63
2023/12/07 05:23:29;;;;;;;9.15;6.40;;;22.80;69.30;;;;;;6215366;28;94222;-63
2023/12/07 05:26:32;;;;;;;9.23;6.80;;;22.90;69.30;;;;;;6215071;28;94058;-63
2023/12/07 05:29:36;;;;;;;8.18;6.43;;;22.90;69.40;;;;;;6208298;28;94023;-63
2023/12/07 05:32:38;;;;;;;8.23;6.63;;;22.80;69.30;;;;;;6213512;28;94113;-63
2023/12/07 05:35:40;;;;;;;9.20;6.80;;;22.80;69.40;;;;;;6207252;28;94168;-63
2023/12/07 05:38:42;;;;;;;8.90;6.55;;;22.80;69.30;;;;;;6213935;28;94338;-63
2023/12/07 05:42:11;;;;;;;9.23;7.00;;;22.90;69.50;;;;;;6210078;28;92397;-63
2023/12/07 05:45:16;;;;;;;7.72;6.55;;;22.80;69.40;;;;;;6225844;28;94847;-63
2023/12/07 05:48:18;;;;;;;7.25;6.38;;;22.90;69.50;;;;;;6204933;28;94111;-63
2023/12/07 05:51:20;;;;;;;8.27;6.40;;;22.80;69.40;;;;;;6208747;28;94205;-63
2023/12/07 05:54:23;;;;;;;8.40;6.32;;;22.90;69.50;;;;;;6201564;28;96169;-63
2023/12/07 05:57:24;;;;;;;7.78;6.47;;;22.90;69.40;;;;;;6201549;28;94152;-63
2023/12/07 06:00:28;;;;;;;9.05;6.18;;;22.90;72.20;;;;;;6213415;28;94103;-61
2023/12/07 06:03:30;;;;;;;9.30;6.72;;;23.00;72.30;;;;;;6222110;28;94251;-62
2023/12/07 06:06:32;;;;;;;7.22;6.15;;;23.00;73.00;;;;;;6207256;28;95407;-62
2023/12/07 06:09:34;;;;;;;9.82;7.00;;;23.10;72.50;;;;;;6205351;28;94288;-62
2023/12/07 06:12:36;;;;;;;11.63;7.25;;;23.10;71.50;;;;;;6214621;28;93487;-62
2023/12/07 06:15:42;;;;;;;9.38;7.63;;;23.20;71.70;;;;;;6205003;28;94257;-62
2023/12/07 06:18:44;;;;;;;9.23;7.50;;;23.30;72.50;;;;;;6214339;28;94298;-61
2023/12/07 06:21:47;;;;;;;8.48;6.90;;;23.20;71.40;;;;;;6218136;28;95145;-63
2023/12/07 06:24:49;;;;;;;8.68;7.20;;;23.30;71.30;;;;;;6216814;28;94497;-63
2023/12/07 06:27:51;;;;;;;8.55;6.93;;;23.30;71.80;;;;;;6217664;28;94396;-63
2023/12/07 06:30:57;;;;;;;7.38;6.10;;;23.30;71.50;;;;;;6231312;28;94922;-62
2023/12/07 06:34:00;;;;;;;7.80;6.65;;;23.30;71.30;;;;;;6219869;28;94070;-63
2023/12/07 06:37:02;;;;;;;7.93;6.28;;;23.30;70.60;;;;;;6210673;28;94865;-63
2023/12/07 06:40:04;;;;;;;6.93;6.22;;;23.30;70.20;;;;;;6224286;28;94141;-62
2023/12/07 06:43:06;;;;;;;8.13;6.78;;;23.20;69.90;;;;;;6212470;28;93361;-62
2023/12/07 06:46:10;;;;;;;9.50;6.60;;;23.20;71.10;;;;;;6219962;28;94061;-62
2023/12/07 06:49:12;;;;;;;7.05;6.13;;;23.20;70.50;;;;;;6210151;28;94164;-62
2023/12/07 06:52:14;;;;;;;7.15;6.35;;;23.20;70.40;;;;;;6214381;28;95459;-62
2023/12/07 06:55:16;;;;;;;8.23;6.50;;;23.10;70.30;;;;;;6206634;28;94107;-62
2023/12/07 06:58:18;;;;;;;7.13;6.30;;;23.10;70.40;;;;;;6203582;28;93878;-62
2023/12/07 07:01:22;;;;;;;7.45;6.07;;;23.10;70.30;;;;;;6191928;28;94170;-62
2023/12/07 07:04:24;;;;;;;7.97;6.22;;;23.10;70.20;;;;;;6189541;28;94158;-62
2023/12/07 07:07:26;;;;;;;6.93;6.05;;;23.10;69.60;;;;;;6193408;28;94543;-62
2023/12/07 07:10:28;;;;;;;6.28;5.68;;;23.10;69.70;;;;;;6200298;28;94798;-62
2023/12/07 07:13:30;;;;;;;8.25;6.10;;;23.10;69.80;;;;;;6194359;28;93411;-62
2023/12/07 07:16:34;;;;;;;8.40;6.28;;;23.10;69.60;;;;;;6209432;28;94148;-62
2023/12/07 07:19:35;;;;;;;7.40;5.93;;;23.10;69.30;;;;;;6217167;28;94375;-62
2023/12/07 07:22:37;;;;;;;7.68;6.10;;;23.10;69.20;;;;;;6226304;28;95062;-62
2023/12/07 07:25:39;;;;;;;6.90;5.80;;;23.10;69.20;;;;;;6194408;28;94098;-62
2023/12/07 07:28:41;;;;;;;6.43;5.72;;;23.10;69.10;;;;;;6195834;28;94112;-63
2023/12/07 07:31:45;;;;;;;6.40;5.70;;;23.10;69.10;;;;;;6191460;28;94304;-62
2023/12/07 07:34:47;;;;;;;5.68;5.15;;;23.20;69.10;;;;;;6203054;28;92987;-62
2023/12/07 07:37:49;;;;;;;8.70;6.28;;;23.10;68.90;;;;;;6201485;28;94135;-62
2023/12/07 07:40:51;;;;;;;7.95;5.90;;;23.20;68.90;;;;;;6191866;28;94117;-62
2023/12/07 07:43:52;;;;;;;8.25;6.15;;;23.20;68.90;;;;;;6213225;28;92272;-62
2023/12/07 07:46:56;;;;;;;7.43;5.80;;;23.20;68.90;;;;;;6220252;28;94132;-62
2023/12/07 07:49:59;;;;;;;7.50;6.00;;;23.20;68.80;;;;;;6216843;28;94179;-63
2023/12/07 07:53:01;;;;;;;7.30;5.97;;;23.20;68.90;;;;;;6217269;28;95010;-62
2023/12/07 07:56:03;;;;;;;6.43;5.50;;;23.20;68.90;;;;;;6227541;28;94251;-63
2023/12/07 07:59:05;;;;;;;6.10;5.35;;;23.20;69.10;;;;;;6220100;28;94208;-62
2023/12/07 08:02:09;;;;;;;7.85;6.07;;;23.10;69.10;;;;;;6210833;28;94157;-62
2023/12/07 08:05:11;;;;;;;9.27;6.60;;;23.10;69.10;;;;;;6213154;28;94272;-62
2023/12/07 08:08:13;;;;;;;7.40;5.85;;;23.10;69.10;;;;;;6212474;28;94147;-63
2023/12/07 08:11:15;;;;;;;7.50;6.40;;;23.10;69.20;;;;;;6213090;28;94077;-62
2023/12/07 08:14:17;;;;;;;8.57;6.50;;;23.10;69.20;;;;;;6206724;28;93319;-62
2023/12/07 08:17:21;;;;;;;7.10;6.03;;;23.10;69.30;;;;;;6213591;28;94423;-62
2023/12/07 08:20:23;;;;;;;6.38;5.75;;;23.10;69.30;;;;;;6210371;28;94059;-63
2023/12/07 08:23:25;;;;;;;6.97;6.28;;;23.10;69.30;;;;;;6205685;28;95892;-62
2023/12/07 08:26:27;;;;;;;8.05;6.05;;;23.10;69.30;;;;;;6222815;28;94164;-63
2023/12/07 08:29:29;;;;;;;6.65;5.72;;;23.10;69.30;;;;;;6228630;28;94684;-62
2023/12/07 08:32:33;;;;;;;7.40;6.00;;;23.10;69.30;;;;;;6218712;28;94239;-62
2023/12/07 08:35:38;;;;;;;6.57;5.75;;;23.10;69.10;;;;;;6215880;28;94246;-62
2023/12/07 08:38:40;;;;;;;5.95;5.35;;;23.10;69.20;;;;;;6224735;28;94097;-62
2023/12/07 08:41:42;;;;;;;6.93;6.00;;;23.10;69.10;;;;;;6235312;28;94795;-62
2023/12/07 08:44:44;;;;;;;6.30;5.68;;;23.10;69.10;;;;;;6223157;28;93567;-62
2023/12/07 08:47:48;;;;;;;8.48;6.13;;;23.10;69.10;;;;;;6208755;28;93010;-62
2023/12/07 08:50:52;;;;;;;6.95;5.97;;;23.00;69.10;;;;;;6231827;28;94447;-63
2023/12/07 08:53:54;;;;;;;5.78;5.20;;;23.00;69.30;;;;;;6209691;28;95037;-62
2023/12/07 08:56:57;;;;;;;6.28;5.50;;;23.00;69.20;;;;;;6223460;28;94210;-62
2023/12/07 08:59:59;;;;;;;6.13;5.47;;;23.00;69.10;;;;;;6214427;28;93716;-63
2023/12/07 09:03:03;;;;;;;7.40;5.53;;;23.00;69.10;;;;;;6210368;28;94083;-63
2023/12/07 09:06:06;;;;;;;5.78;5.18;;;23.00;69.10;;;;;;6204950;28;93981;-63
2023/12/07 09:09:08;;;;;;;5.95;5.35;;;23.00;69.10;;;;;;6214992;28;94528;-62
2023/12/07 09:12:10;;;;;;;5.97;5.07;;;23.00;69.00;;;;;;6204351;28;94124;-62
2023/12/07 09:15:14;;;;;;;5.80;5.20;;;23.00;69.00;;;;;;6214476;28;93447;-63
2023/12/07 09:18:17;;;;;;;6.53;5.07;;;23.00;69.00;;;;;;6210574;28;94096;-62
2023/12/07 09:21:19;;;;;;;6.22;5.40;;;23.10;69.10;;;;;;6225352;28;94111;-63
2023/12/07 09:24:21;;;;;;;7.07;5.63;;;23.00;69.10;;;;;;6210470;28;95017;-63
2023/12/07 09:27:24;;;;;;;5.60;5.05;;;23.10;69.10;;;;;;6214415;28;94137;-62
2023/12/07 09:30:26;;;;;;;6.28;5.38;;;23.00;69.00;;;;;;6219623;28;94055;-62
2023/12/07 09:33:29;;;;;;;6.20;5.30;;;23.00;69.00;;;;;;6210683;28;93059;-63
2023/12/07 09:36:31;;;;;;;6.93;5.68;;;23.00;69.10;;;;;;6226021;28;94038;-62
2023/12/07 09:39:33;;;;;;;7.80;5.20;;;23.10;69.10;;;;;;6215303;28;94092;-62
2023/12/07 09:42:35;;;;;;;7.38;5.20;;;23.10;69.10;;;;;;6202461;28;94096;-62
2023/12/07 09:45:37;;;;;;;6.50;4.97;;;23.10;69.10;;;;;;6206510;28;93427;-63
2023/12/07 09:48:45;;;;;;;6.65;4.93;;;23.10;69.00;;;;;;6206709;28;94102;-62
2023/12/07 09:51:47;;;;;;;5.70;5.00;;;23.10;68.90;;;;;;6214880;28;94200;-63
2023/12/07 09:54:51;;;;;;;5.93;4.97;;;23.10;69.10;;;;;;6213786;28;95048;-63
2023/12/07 09:57:56;;;;;;;5.28;4.50;;;23.00;69.00;;;;;;6224877;28;94210;-62
2023/12/07 10:00:58;;;;;;;5.55;4.60;;;23.10;69.20;;;;;;6216491;28;94122;-63
2023/12/07 10:04:26;;;;;;;4.68;4.28;;;23.10;69.30;;;;;;6220779;28;94295;-62
2023/12/07 10:07:33;;;;;;;8.63;5.93;;;23.10;69.80;;;;;;6141899;28;94000;-63
2023/12/07 10:10:37;;;;;;;8.02;5.10;;;23.10;72.20;;;;;;6215397;28;94078;-62
2023/12/07 10:13:40;;;;;;;7.85;4.82;;;23.10;74.00;;;;;;6210619;28;92746;-62
2023/12/07 10:16:55;;;;;;;6.55;5.10;;;23.10;73.00;;;;;;6214857;28;93651;-62
2023/12/07 10:20:23;;;;;;;7.05;5.00;;;23.10;72.70;;;;;;6226451;28;94089;-62
2023/12/07 10:23:27;;;;;;;7.47;4.97;;;23.10;72.60;;;;;;6212387;28;94166;-63
2023/12/07 10:26:29;;;;;;;7.03;4.95;;;23.00;72.70;;;;;;6200488;28;95031;-62
2023/12/07 10:29:31;;;;;;;5.53;4.50;;;23.00;72.70;;;;;;6219579;28;94231;-62
2023/12/07 10:32:37;;;;;;;6.28;4.75;;;23.00;72.80;;;;;;6222752;28;94155;-62
2023/12/07 10:35:41;;;;;;;5.88;4.53;;;23.00;72.90;;;;;;6246015;28;94109;-62
2023/12/07 10:38:45;;;;;;;4.80;4.30;;;23.00;72.90;;;;;;6228464;28;94090;-62
2023/12/07 10:41:48;;;;;;;5.35;4.32;;;23.00;73.00;;;;;;6233326;28;94225;-62
2023/12/07 10:44:54;;;;;;;5.63;4.50;;;23.00;73.00;;;;;;6227041;28;94117;-62
2023/12/07 10:48:04;;;;;;;5.03;4.30;;;23.00;73.00;;;;;;6227266;28;92162;-62
2023/12/07 10:51:10;;;;;;;5.10;4.13;;;23.00;73.20;;;;;;6218000;28;94606;-62
2023/12/07 10:54:18;;;;;;;6.68;4.93;;;23.00;74.00;;;;;;6211881;28;94091;-62
2023/12/07 10:57:22;;;;;;;7.78;5.05;;;23.00;73.20;;;;;;6227494;28;95054;-62
2023/12/07 11:00:27;;;;;;;5.38;4.22;;;23.00;73.20;;;;;;6237257;28;94071;-63
2023/12/07 11:03:30;;;;;;;5.55;3.97;;;22.90;73.20;;;;;;6213644;28;94046;-62
2023/12/07 11:06:34;;;;;;;6.30;4.28;;;22.90;73.30;;;;;;6222902;28;94219;-62
2023/12/07 11:09:42;;;;;;;4.72;4.18;;;22.90;73.30;;;;;;6214342;28;94150;-62
2023/12/07 11:12:51;;;;;;;4.63;4.07;;;22.90;73.30;;;;;;6204699;28;94065;-62
2023/12/07 11:15:53;;;;;;;4.82;3.83;;;22.90;73.80;;;;;;6220657;28;94330;-62
2023/12/07 11:18:55;;;;;;;4.57;3.70;;;22.90;74.00;;;;;;6212643;28;93411;-62
2023/12/07 11:21:59;;;;;;;6.35;4.15;;;23.00;74.10;;;;;;6220029;28;94098;-63
2023/12/07 11:25:02;;;;;;;4.88;3.83;;;23.00;74.00;;;;;;6216093;28;94508;-62
2023/12/07 11:28:05;;;;;;;7.95;4.65;;;23.00;73.80;;;;;;6216555;28;95150;-62
2023/12/07 11:31:08;;;;;;;5.95;4.50;;;23.00;73.40;;;;;;6204567;28;94253;-62
2023/12/07 11:34:13;;;;;;;4.53;3.88;;;23.00;73.50;;;;;;6204175;28;95748;-62
2023/12/07 11:37:18;;;;;;;5.38;3.80;;;22.90;73.70;;;;;;6204803;28;94013;-62
2023/12/07 11:40:20;;;;;;;4.80;4.03;;;22.90;73.70;;;;;;6212417;28;94015;-62
2023/12/07 11:43:39;;;;;;;4.82;3.78;;;22.90;73.70;;;;;;6211091;28;94184;-62
2023/12/07 11:46:41;;;;;;;4.53;3.83;;;22.90;73.80;;;;;;6213979;28;94287;-62
2023/12/07 11:49:43;;;;;;;6.28;4.10;;;22.90;73.80;;;;;;6223384;28;93701;-62
2023/12/07 11:52:47;;;;;;;4.38;3.58;;;22.90;73.90;;;;;;6227309;28;94150;-62
2023/12/07 11:55:49;;;;;;;4.22;3.83;;;22.90;74.00;;;;;;6215604;28;94347;-62
2023/12/07 11:58:52;;;;;;;3.92;3.53;;;22.90;74.20;;;;;;6217755;28;95046;-62
2023/12/07 12:01:54;;;;;;;4.07;3.65;;;22.90;74.40;;;;;;6210286;28;94160;-62
2023/12/07 12:04:59;;;;;;;4.28;3.63;;;22.90;74.30;;;;;;6211072;28;92951;-62
2023/12/07 12:08:02;;;;;;;4.07;3.42;;;22.90;74.30;;;;;;6207847;28;94059;-62
2023/12/07 12:11:05;;;;;;;5.65;3.80;;;22.90;74.20;;;;;;6213226;28;94098;-62
2023/12/07 12:14:08;;;;;;;5.05;3.78;;;23.00;74.30;;;;;;6212451;28;94468;-63
2023/12/07 12:17:10;;;;;;;4.32;3.55;;;22.90;74.20;;;;;;6204833;28;94135;-62
2023/12/07 12:20:17;;;;;;;3.78;3.35;;;23.00;74.30;;;;;;6211279;28;93341;-62
2023/12/07 12:23:20;;;;;;;7.15;4.30;;;22.90;74.10;;;;;;6204132;28;94592;-63
2023/12/07 12:26:23;;;;;;;5.13;3.50;;;23.00;74.20;;;;;;6215190;28;94117;-62
2023/12/07 12:29:25;;;;;;;4.40;3.45;;;23.00;74.20;;;;;;6227267;28;95127;-62
2023/12/07 12:32:27;;;;;;;5.68;3.58;;;23.00;74.20;;;;;;6209085;28;94711;-63
2023/12/07 12:35:29;;;;;;;4.15;3.30;;;23.00;74.10;;;;;;6215008;28;93305;-62
2023/12/07 12:38:32;;;;;;;4.20;3.33;;;23.00;74.20;;;;;;6201531;28;94685;-62
2023/12/07 12:41:34;;;;;;;4.13;3.30;;;23.00;74.20;;;;;;6210479;28;94205;-62
2023/12/07 12:44:38;;;;;;;3.63;3.20;;;23.00;74.10;;;;;;6209132;28;94199;-62
2023/12/07 12:47:40;;;;;;;4.47;3.65;;;23.00;74.20;;;;;;6217910;28;94184;-63
2023/12/07 12:50:42;;;;;;;4.70;3.42;;;23.00;74.30;;;;;;6208734;28;93565;-62
2023/12/07 12:53:47;;;;;;;3.75;3.38;;;23.00;74.40;;;;;;6223734;28;94082;-62
2023/12/07 12:56:50;;;;;;;4.10;3.42;;;22.90;74.40;;;;;;6209276;28;93984;-62
2023/12/07 12:59:52;;;;;;;4.78;3.30;;;23.00;74.40;;;;;;6221674;28;95037;-62
2023/12/07 13:02:55;;;;;;;5.47;3.65;;;23.00;74.50;;;;;;6232959;28;94095;-63
2023/12/07 13:05:57;;;;;;;5.07;3.47;;;23.00;74.60;;;;;;6214656;28;94301;-60
2023/12/07 13:09:00;;;;;;;3.30;3.00;;;23.00;74.70;;;;;;6215749;28;94051;-61
2023/12/07 13:12:02;;;;;;;4.72;3.35;;;23.00;74.70;;;;;;6230489;28;94709;-62
2023/12/07 13:15:04;;;;;;;6.10;3.78;;;23.00;74.70;;;;;;6214832;28;94423;-61
2023/12/07 13:18:07;;;;;;;5.32;3.50;;;23.00;74.70;;;;;;6213701;28;94367;-60
2023/12/07 13:21:10;;;;;;;3.85;3.08;;;22.90;74.90;;;;;;6183653;28;93419;-61
2023/12/07 13:24:13;;;;;;;3.17;2.88;;;22.90;74.90;;;;;;6186594;28;94441;-61
2023/12/07 13:27:15;;;;;;;3.90;3.08;;;22.90;75.00;;;;;;6197384;28;94154;-60
2023/12/07 13:30:17;;;;;;;4.47;3.10;;;22.90;75.00;;;;;;6217315;28;95304;-60
2023/12/07 13:33:19;;;;;;;4.03;3.17;;;22.90;75.20;;;;;;6217517;28;94340;-60
2023/12/07 13:36:22;;;;;;;3.50;3.00;;;22.90;75.30;;;;;;6213595;28;94076;-60
2023/12/07 13:39:27;;;;;;;4.15;3.15;;;22.90;75.40;;;;;;6210060;28;94074;-60
2023/12/07 13:42:29;;;;;;;5.50;3.40;;;22.90;75.40;;;;;;6202780;28;94060;-65
2023/12/07 13:45:32;;;;;;;6.07;3.40;;;22.80;75.60;;;;;;6222405;28;94158;-62
2023/12/07 13:48:34;;;;;;;8.00;3.50;;;22.90;76.40;;;;;;6220567;28;94188;-59
2023/12/07 13:51:35;;;;;;;7.57;3.70;;;22.90;76.90;;;;;;6209182;28;93396;-61
2023/12/07 13:54:40;;;;;;;9.13;3.72;;;23.00;83.70;;;;;;6204075;28;94104;-61
2023/12/07 13:57:41;;;;;;;5.30;3.33;;;23.00;86.70;;;;;;6232318;28;94117;-60
2023/12/07 14:00:45;;;;;;;7.10;3.22;;;23.00;82.20;;;;;;6201677;28;95088;-59
2023/12/07 14:03:47;;;;;;;4.97;2.80;;;23.10;84.20;;;;;;6233188;28;93319;-60
2023/12/07 14:06:49;;;;;;;3.35;2.63;;;23.00;79.90;;;;;;6206857;28;94040;-60
2023/12/07 14:09:53;;;;;;;3.67;3.00;;;23.00;78.00;;;;;;6212923;28;94329;-60
2023/12/07 14:12:55;;;;;;;4.53;3.03;;;23.00;77.30;;;;;;6210797;28;94176;-60
2023/12/07 14:15:57;;;;;;;5.20;2.83;;;23.10;77.10;;;;;;6225365;28;94095;-60
2023/12/07 14:18:59;;;;;;;4.40;2.50;;;23.10;76.60;;;;;;6212911;28;94059;-59
2023/12/07 14:22:01;;;;;;;4.53;2.88;;;23.00;76.50;;;;;;6216557;28;93401;-60
2023/12/07 14:25:05;;;;;;;3.47;2.30;;;23.10;76.20;;;;;;6210021;28;94416;-60
2023/12/07 14:28:08;;;;;;;6.50;3.20;;;23.00;75.70;;;;;;6218393;28;94029;-59
2023/12/07 14:31:16;;;;;;;3.15;2.75;;;23.00;75.80;;;;;;6217418;28;95122;-60
2023/12/07 14:34:19;;;;;;;9.70;4.05;;;23.00;75.80;;;;;;6217527;28;94877;-60
2023/12/07 14:37:21;;;;;;;3.90;2.55;;;23.00;75.60;;;;;;6225029;28;94207;-59
2023/12/07 14:40:24;;;;;;;5.13;2.85;;;23.00;75.50;;;;;;6226941;28;94117;-60
2023/12/07 14:43:26;;;;;;;3.88;2.85;;;23.00;75.60;;;;;;6238874;28;94143;-59
2023/12/07 14:46:29;;;;;;;3.88;2.72;;;23.00;75.60;;;;;;6222206;28;94414;-60
2023/12/07 14:49:31;;;;;;;3.38;2.47;;;23.00;75.40;;;;;;6214295;28;94044;-60
2023/12/07 14:52:33;;;;;;;3.88;2.50;;;23.00;75.40;;;;;;6220177;28;93463;-60
2023/12/07 14:55:37;;;;;;;3.90;2.53;;;23.00;75.20;;;;;;6212620;28;94586;-60
2023/12/07 14:58:39;;;;;;;5.07;3.05;;;23.00;75.10;;;;;;6230365;28;94453;-60
2023/12/07 15:01:41;;;;;;;3.75;2.50;;;23.00;75.00;;;;;;6226523;28;95055;-60
2023/12/07 15:04:43;;;;;;;3.63;2.65;;;23.00;74.90;;;;;;6225319;28;94182;-60
2023/12/07 15:07:45;;;;;;;3.63;2.53;;;23.00;75.00;;;;;;6223848;28;94050;-60
2023/12/07 15:10:52;;;;;;;4.95;2.75;;;23.00;74.90;;;;;;6228906;28;94082;-61
2023/12/07 15:13:54;;;;;;;5.40;2.95;;;23.00;75.00;;;;;;6238662;28;94152;-60
2023/12/07 15:16:56;;;;;;;8.52;3.42;;;23.00;76.00;;;;;;6224204;28;94009;-61
2023/12/07 15:19:58;;;;;;;5.97;3.03;;;22.90;76.10;;;;;;6228524;28;94129;-60
2023/12/07 15:23:00;;;;;;;4.35;2.72;;;22.90;75.90;;;;;;6228287;28;93336;-60
2023/12/07 15:26:03;;;;;;;4.78;2.90;;;23.00;75.60;;;;;;6235617;28;94509;-60
2023/12/07 15:29:06;;;;;;;4.40;2.80;;;23.00;75.80;;;;;;6225359;28;94158;-60
2023/12/07 15:32:10;;;;;;;5.75;3.10;;;23.00;75.70;;;;;;6222191;28;94078;-60
2023/12/07 15:35:12;;;;;;;6.15;3.13;;;23.00;75.70;;;;;;6218720;28;94397;-60
2023/12/07 15:38:14;;;;;;;5.00;2.88;;;23.00;75.70;;;;;;6220852;28;94647;-60
2023/12/07 15:41:17;;;;;;;6.28;2.72;;;23.00;75.70;;;;;;6207231;28;94184;-61
2023/12/07 15:44:19;;;;;;;7.35;3.35;;;23.00;75.70;;;;;;6219026;28;95248;-60
2023/12/07 15:47:21;;;;;;;7.10;3.63;;;23.00;75.70;;;;;;6215894;28;94446;-60
2023/12/07 15:50:23;;;;;;;4.97;3.30;;;23.00;75.60;;;;;;6195687;28;93082;-60